Etusivu
METAR-TAF:

METAR-TAF

Lentoasemat :

Cayenne, Ranskan Guayana

Leveyspiiri: 04-50N, Pituuspiiri: 052-22W, korkeus merenpinnasta: 105 m

Tämänhetkinen sää

Tämä raportti tehtiin 15 minuuttia sitten, kello 14.30 UTC
Tuuli 7 kn kaakosta, vaihdellen idän ja etelän välillä
Lämpötila 32°C
Kosteus 56%
Ilmanpaine 1011 hPa
Näkyvyys 10 km tai enemmän
Hajanaisia pilviä 3800 ft:n korkeudessa
Hajanaisia pilviä 4400 ft:n korkeudessa

METAR: SOCA 271430Z AUTO 14007KT 100V180 9999 SCT038 SCT044 32/22 Q1011 NOSIG

Aika: 11:45 (14:45 UTC)

Sääennuste

Tämä raportti tehtiin 4 tuntia ja 45 minuuttia sitten, kello 10.00 UTC
Ennuste voimassa 27. päivästä klo 12 UTC - 28. päivään klo 12 UTC
Tuuli 14 kn idästä
Näkyvyys 10 km tai enemmän
Hajanaisia pilviä 3300 ft:n korkeudessa
From 27. päivästä klo 2300 UTC
Tuuli 3 kn eri suunnista
Näkyvyys 10 km tai enemmän
ei pilviä alle 1500 m:ssä eikä cumulonimbus-pilviä

TAF: SOCA 271000Z 2712/2812 09014KT 9999 SCT033 FM272300 VRB03KT CAVOK

Säähavainnot ja -ennusteet yli 4000 lentoasemalta (METAR- ja TAF-raportit).

Käytössä olevat sääasemat on merkitty karttaan keltaisilla ja punaisilla pisteillä.

Aseta hiiri pisteen päälle nähdäksesi sääaseman nimen.

Klikkaa sitten nähdäksesi säähavainnot ja -ennusteet.

Kartan vaihtaminen: klikkaa mustalla rastilla varustettuja vihreitä pisteitä, niin voit zoomata sisään; viivalla varustettua vihreää pistettä, niin voit zoomata ulos tai vihreitä nuolia, niin pääset viereisille kartoille.


METAR-TAF: